sensor_id;sensor_type;location;lat;lon;timestamp;P1;durP1;ratioP1;P2;durP2;ratioP2
70126;SDS011;57491;42.694;23.314;2022-10-03T00:02:13;4.57;;;2.92;;
70126;SDS011;57491;42.694;23.314;2022-10-03T00:04:53;3.72;;;2.83;;
70126;SDS011;57491;42.694;23.314;2022-10-03T00:07:44;3.40;;;3.10;;
70126;SDS011;57491;42.694;23.314;2022-10-03T00:10:26;4.47;;;3.08;;
70126;SDS011;57491;42.694;23.314;2022-10-03T00:13:08;3.80;;;3.17;;
70126;SDS011;57491;42.694;23.314;2022-10-03T00:15:47;4.43;;;2.90;;
70126;SDS011;57491;42.694;23.314;2022-10-03T00:18:22;4.25;;;3.13;;
70126;SDS011;57491;42.694;23.314;2022-10-03T00:21:14;4.70;;;3.42;;
70126;SDS011;57491;42.694;23.314;2022-10-03T00:23:53;3.95;;;2.67;;
70126;SDS011;57491;42.694;23.314;2022-10-03T00:26:29;5.55;;;3.25;;
70126;SDS011;57491;42.694;23.314;2022-10-03T00:29:12;4.13;;;2.85;;
70126;SDS011;57491;42.694;23.314;2022-10-03T00:31:52;4.93;;;2.97;;
70126;SDS011;57491;42.694;23.314;2022-10-03T00:34:31;6.05;;;3.03;;
70126;SDS011;57491;42.694;23.314;2022-10-03T00:37:11;3.40;;;2.20;;
70126;SDS011;57491;42.694;23.314;2022-10-03T00:39:55;3.80;;;2.25;;
70126;SDS011;57491;42.694;23.314;2022-10-03T00:42:43;3.00;;;1.98;;
70126;SDS011;57491;42.694;23.314;2022-10-03T00:45:43;3.45;;;2.70;;
70126;SDS011;57491;42.694;23.314;2022-10-03T00:48:41;2.60;;;1.90;;
70126;SDS011;57491;42.694;23.314;2022-10-03T00:51:39;2.40;;;2.20;;
70126;SDS011;57491;42.694;23.314;2022-10-03T00:54:23;3.58;;;2.60;;
70126;SDS011;57491;42.694;23.314;2022-10-03T00:57:02;2.50;;;2.05;;
70126;SDS011;57491;42.694;23.314;2022-10-03T00:59:47;4.95;;;2.35;;
70126;SDS011;57491;42.694;23.314;2022-10-03T01:02:36;4.65;;;2.85;;
70126;SDS011;57491;42.694;23.314;2022-10-03T01:05:15;3.45;;;2.30;;
70126;SDS011;57491;42.694;23.314;2022-10-03T01:11:01;3.20;;;2.73;;
70126;SDS011;57491;42.694;23.314;2022-10-03T01:16:15;3.38;;;2.50;;
70126;SDS011;57491;42.694;23.314;2022-10-03T01:18:52;3.95;;;2.60;;
70126;SDS011;57491;42.694;23.314;2022-10-03T01:21:31;2.55;;;2.33;;
70126;SDS011;57491;42.694;23.314;2022-10-03T01:24:13;3.83;;;2.10;;
70126;SDS011;57491;42.694;23.314;2022-10-03T01:27:00;6.10;;;2.40;;
70126;SDS011;57491;42.694;23.314;2022-10-03T01:29:43;3.17;;;2.35;;
70126;SDS011;57491;42.694;23.314;2022-10-03T01:32:32;3.30;;;2.22;;
70126;SDS011;57491;42.694;23.314;2022-10-03T01:35:10;3.78;;;2.47;;
70126;SDS011;57491;42.694;23.314;2022-10-03T01:37:47;2.55;;;2.35;;
70126;SDS011;57491;42.694;23.314;2022-10-03T01:40:25;3.90;;;2.50;;
70126;SDS011;57491;42.694;23.314;2022-10-03T01:42:59;3.28;;;2.40;;
70126;SDS011;57491;42.694;23.314;2022-10-03T01:45:40;7.07;;;2.60;;
70126;SDS011;57491;42.694;23.314;2022-10-03T01:48:13;3.17;;;2.30;;
70126;SDS011;57491;42.694;23.314;2022-10-03T01:50:49;2.92;;;2.15;;
70126;SDS011;57491;42.694;23.314;2022-10-03T01:53:25;2.58;;;2.38;;
70126;SDS011;57491;42.694;23.314;2022-10-03T01:56:05;5.40;;;2.83;;
70126;SDS011;57491;42.694;23.314;2022-10-03T01:58:40;4.57;;;2.30;;
70126;SDS011;57491;42.694;23.314;2022-10-03T02:01:20;5.83;;;2.80;;
70126;SDS011;57491;42.694;23.314;2022-10-03T02:03:53;6.15;;;3.05;;
70126;SDS011;57491;42.694;23.314;2022-10-03T02:06:31;4.70;;;2.70;;
70126;SDS011;57491;42.694;23.314;2022-10-03T02:09:08;3.88;;;2.83;;
70126;SDS011;57491;42.694;23.314;2022-10-03T02:11:53;4.43;;;3.28;;
70126;SDS011;57491;42.694;23.314;2022-10-03T02:14:29;6.63;;;4.50;;
70126;SDS011;57491;42.694;23.314;2022-10-03T02:19:40;6.72;;;3.50;;
70126;SDS011;57491;42.694;23.314;2022-10-03T02:22:13;4.68;;;3.47;;
70126;SDS011;57491;42.694;23.314;2022-10-03T02:24:44;5.30;;;3.28;;
70126;SDS011;57491;42.694;23.314;2022-10-03T02:27:25;6.65;;;3.00;;
70126;SDS011;57491;42.694;23.314;2022-10-03T02:30:12;7.93;;;3.50;;
70126;SDS011;57491;42.694;23.314;2022-10-03T02:36:07;5.80;;;3.75;;
70126;SDS011;57491;42.694;23.314;2022-10-03T02:38:56;3.70;;;3.33;;
70126;SDS011;57491;42.694;23.314;2022-10-03T02:41:59;4.35;;;3.40;;
70126;SDS011;57491;42.694;23.314;2022-10-03T02:44:53;4.80;;;3.45;;
70126;SDS011;57491;42.694;23.314;2022-10-03T02:47:48;6.30;;;3.85;;
70126;SDS011;57491;42.694;23.314;2022-10-03T02:50:45;7.05;;;4.00;;
70126;SDS011;57491;42.694;23.314;2022-10-03T02:53:43;6.88;;;3.65;;
70126;SDS011;57491;42.694;23.314;2022-10-03T03:00:11;4.28;;;3.63;;
70126;SDS011;57491;42.694;23.314;2022-10-03T03:03:04;6.03;;;3.55;;
70126;SDS011;57491;42.694;23.314;2022-10-03T03:05:58;7.95;;;3.28;;
70126;SDS011;57491;42.694;23.314;2022-10-03T03:08:52;4.57;;;3.80;;
70126;SDS011;57491;42.694;23.314;2022-10-03T03:11:34;5.25;;;3.38;;
70126;SDS011;57491;42.694;23.314;2022-10-03T03:14:44;5.72;;;3.88;;
70126;SDS011;57491;42.694;23.314;2022-10-03T03:17:34;4.47;;;3.45;;
70126;SDS011;57491;42.694;23.314;2022-10-03T03:20:11;6.40;;;3.40;;
70126;SDS011;57491;42.694;23.314;2022-10-03T03:22:59;6.50;;;4.25;;
70126;SDS011;57491;42.694;23.314;2022-10-03T03:28:39;6.80;;;3.83;;
70126;SDS011;57491;42.694;23.314;2022-10-03T03:31:19;8.93;;;4.57;;
70126;SDS011;57491;42.694;23.314;2022-10-03T03:33:57;8.77;;;6.15;;
70126;SDS011;57491;42.694;23.314;2022-10-03T03:36:34;8.07;;;4.40;;
70126;SDS011;57491;42.694;23.314;2022-10-03T03:39:08;6.85;;;4.43;;
70126;SDS011;57491;42.694;23.314;2022-10-03T03:41:55;6.68;;;4.32;;
70126;SDS011;57491;42.694;23.314;2022-10-03T03:44:36;9.23;;;3.97;;
70126;SDS011;57491;42.694;23.314;2022-10-03T03:47:35;9.02;;;4.90;;
70126;SDS011;57491;42.694;23.314;2022-10-03T03:50:21;10.40;;;4.63;;
70126;SDS011;57491;42.694;23.314;2022-10-03T03:53:01;6.70;;;3.90;;
70126;SDS011;57491;42.694;23.314;2022-10-03T03:55:50;5.47;;;3.88;;
70126;SDS011;57491;42.694;23.314;2022-10-03T03:58:31;9.88;;;4.65;;
70126;SDS011;57491;42.694;23.314;2022-10-03T04:01:06;8.52;;;3.65;;
70126;SDS011;57491;42.694;23.314;2022-10-03T04:03:48;7.85;;;3.88;;
70126;SDS011;57491;42.694;23.314;2022-10-03T04:09:08;9.55;;;4.43;;
70126;SDS011;57491;42.694;23.314;2022-10-03T04:11:50;10.25;;;4.13;;
70126;SDS011;57491;42.694;23.314;2022-10-03T04:14:34;15.65;;;5.95;;
70126;SDS011;57491;42.694;23.314;2022-10-03T04:17:23;9.45;;;4.90;;
70126;SDS011;57491;42.694;23.314;2022-10-03T04:20:28;13.50;;;4.82;;
70126;SDS011;57491;42.694;23.314;2022-10-03T04:23:12;9.73;;;4.10;;
70126;SDS011;57491;42.694;23.314;2022-10-03T04:26:07;13.75;;;6.75;;
70126;SDS011;57491;42.694;23.314;2022-10-03T04:28:56;10.32;;;4.53;;
70126;SDS011;57491;42.694;23.314;2022-10-03T04:31:49;12.38;;;4.55;;
70126;SDS011;57491;42.694;23.314;2022-10-03T04:34:27;13.13;;;5.60;;
70126;SDS011;57491;42.694;23.314;2022-10-03T04:37:16;7.45;;;4.07;;
70126;SDS011;57491;42.694;23.314;2022-10-03T04:39:52;12.52;;;4.95;;
70126;SDS011;57491;42.694;23.314;2022-10-03T04:42:35;8.05;;;4.60;;
70126;SDS011;57491;42.694;23.314;2022-10-03T04:45:16;10.35;;;4.82;;
70126;SDS011;57491;42.694;23.314;2022-10-03T04:48:03;9.68;;;4.88;;
70126;SDS011;57491;42.694;23.314;2022-10-03T04:50:36;11.70;;;4.90;;
70126;SDS011;57491;42.694;23.314;2022-10-03T04:53:11;11.68;;;5.03;;
70126;SDS011;57491;42.694;23.314;2022-10-03T04:55:47;11.70;;;5.32;;
70126;SDS011;57491;42.694;23.314;2022-10-03T04:58:23;9.27;;;3.97;;
70126;SDS011;57491;42.694;23.314;2022-10-03T05:01:02;7.97;;;3.90;;
70126;SDS011;57491;42.694;23.314;2022-10-03T05:03:41;7.65;;;4.18;;
70126;SDS011;57491;42.694;23.314;2022-10-03T05:06:30;6.75;;;4.05;;
70126;SDS011;57491;42.694;23.314;2022-10-03T05:09:12;6.63;;;3.70;;
70126;SDS011;57491;42.694;23.314;2022-10-03T05:11:53;13.60;;;4.05;;
70126;SDS011;57491;42.694;23.314;2022-10-03T05:14:31;9.38;;;4.55;;
70126;SDS011;57491;42.694;23.314;2022-10-03T05:17:17;13.88;;;5.25;;
70126;SDS011;57491;42.694;23.314;2022-10-03T05:20:00;12.07;;;6.40;;
70126;SDS011;57491;42.694;23.314;2022-10-03T05:22:41;11.20;;;5.55;;
70126;SDS011;57491;42.694;23.314;2022-10-03T05:25:20;20.88;;;5.45;;
70126;SDS011;57491;42.694;23.314;2022-10-03T05:27:57;11.25;;;4.93;;
70126;SDS011;57491;42.694;23.314;2022-10-03T05:30:34;8.32;;;5.57;;
70126;SDS011;57491;42.694;23.314;2022-10-03T05:33:13;25.35;;;7.90;;
70126;SDS011;57491;42.694;23.314;2022-10-03T05:35:52;16.40;;;5.20;;
70126;SDS011;57491;42.694;23.314;2022-10-03T05:38:46;10.38;;;5.57;;
70126;SDS011;57491;42.694;23.314;2022-10-03T05:41:26;9.68;;;4.00;;
70126;SDS011;57491;42.694;23.314;2022-10-03T05:44:00;9.13;;;5.55;;
70126;SDS011;57491;42.694;23.314;2022-10-03T05:46:37;10.75;;;5.68;;
70126;SDS011;57491;42.694;23.314;2022-10-03T05:49:16;14.18;;;6.22;;
70126;SDS011;57491;42.694;23.314;2022-10-03T05:51:57;12.18;;;5.18;;
70126;SDS011;57491;42.694;23.314;2022-10-03T05:54:52;11.32;;;5.30;;
70126;SDS011;57491;42.694;23.314;2022-10-03T05:57:43;14.88;;;5.68;;
70126;SDS011;57491;42.694;23.314;2022-10-03T06:00:25;15.20;;;6.03;;
70126;SDS011;57491;42.694;23.314;2022-10-03T06:03:15;20.05;;;7.22;;
70126;SDS011;57491;42.694;23.314;2022-10-03T06:06:03;16.20;;;6.65;;
70126;SDS011;57491;42.694;23.314;2022-10-03T06:08:51;13.93;;;7.40;;
70126;SDS011;57491;42.694;23.314;2022-10-03T06:11:50;10.77;;;6.32;;
70126;SDS011;57491;42.694;23.314;2022-10-03T06:14:30;10.93;;;5.85;;
70126;SDS011;57491;42.694;23.314;2022-10-03T06:17:17;14.10;;;6.78;;
70126;SDS011;57491;42.694;23.314;2022-10-03T06:19:55;17.73;;;6.28;;
70126;SDS011;57491;42.694;23.314;2022-10-03T06:28:55;13.77;;;6.50;;
70126;SDS011;57491;42.694;23.314;2022-10-03T06:34:48;14.65;;;6.97;;
70126;SDS011;57491;42.694;23.314;2022-10-03T06:41:04;12.05;;;6.15;;
70126;SDS011;57491;42.694;23.314;2022-10-03T06:43:57;10.88;;;5.88;;
70126;SDS011;57491;42.694;23.314;2022-10-03T06:46:54;8.88;;;5.50;;
70126;SDS011;57491;42.694;23.314;2022-10-03T06:49:57;9.65;;;5.35;;
70126;SDS011;57491;42.694;23.314;2022-10-03T06:53:10;8.07;;;4.82;;
70126;SDS011;57491;42.694;23.314;2022-10-03T06:59:06;10.45;;;4.60;;
70126;SDS011;57491;42.694;23.314;2022-10-03T07:02:05;7.47;;;4.38;;
70126;SDS011;57491;42.694;23.314;2022-10-03T07:11:06;13.23;;;5.40;;
70126;SDS011;57491;42.694;23.314;2022-10-03T07:13:58;12.38;;;5.97;;
70126;SDS011;57491;42.694;23.314;2022-10-03T07:19:48;11.27;;;6.60;;
70126;SDS011;57491;42.694;23.314;2022-10-03T07:25:42;8.52;;;4.82;;
70126;SDS011;57491;42.694;23.314;2022-10-03T07:28:46;7.95;;;5.82;;
70126;SDS011;57491;42.694;23.314;2022-10-03T07:31:34;11.23;;;6.22;;
70126;SDS011;57491;42.694;23.314;2022-10-03T07:34:17;11.10;;;5.57;;
70126;SDS011;57491;42.694;23.314;2022-10-03T07:37:16;16.65;;;6.43;;
70126;SDS011;57491;42.694;23.314;2022-10-03T07:43:36;14.60;;;9.60;;
70126;SDS011;57491;42.694;23.314;2022-10-03T07:46:29;9.65;;;4.95;;
70126;SDS011;57491;42.694;23.314;2022-10-03T07:49:24;12.50;;;6.18;;
70126;SDS011;57491;42.694;23.314;2022-10-03T07:52:32;10.18;;;5.32;;
70126;SDS011;57491;42.694;23.314;2022-10-03T07:55:30;8.85;;;5.55;;
70126;SDS011;57491;42.694;23.314;2022-10-03T07:58:22;8.02;;;5.68;;
70126;SDS011;57491;42.694;23.314;2022-10-03T08:01:08;13.13;;;8.25;;
70126;SDS011;57491;42.694;23.314;2022-10-03T08:07:04;14.43;;;9.10;;
70126;SDS011;57491;42.694;23.314;2022-10-03T08:09:56;14.38;;;8.27;;
70126;SDS011;57491;42.694;23.314;2022-10-03T08:12:48;19.02;;;10.38;;
70126;SDS011;57491;42.694;23.314;2022-10-03T08:15:29;12.00;;;6.93;;
70126;SDS011;57491;42.694;23.314;2022-10-03T08:18:15;36.23;;;15.57;;
70126;SDS011;57491;42.694;23.314;2022-10-03T08:21:13;21.20;;;9.82;;
70126;SDS011;57491;42.694;23.314;2022-10-03T08:24:00;13.07;;;6.53;;
70126;SDS011;57491;42.694;23.314;2022-10-03T08:38:57;7.25;;;3.33;;
70126;SDS011;57491;42.694;23.314;2022-10-03T08:41:53;11.55;;;4.25;;
70126;SDS011;57491;42.694;23.314;2022-10-03T08:44:47;13.02;;;5.47;;
70126;SDS011;57491;42.694;23.314;2022-10-03T08:51:04;7.50;;;3.80;;
70126;SDS011;57491;42.694;23.314;2022-10-03T08:54:06;6.38;;;2.30;;
70126;SDS011;57491;42.694;23.314;2022-10-03T08:57:01;3.80;;;2.47;;
70126;SDS011;57491;42.694;23.314;2022-10-03T08:59:49;5.30;;;2.80;;
70126;SDS011;57491;42.694;23.314;2022-10-03T09:09:11;2.60;;;2.20;;
70126;SDS011;57491;42.694;23.314;2022-10-03T09:12:08;3.05;;;2.38;;
70126;SDS011;57491;42.694;23.314;2022-10-03T09:15:07;2.38;;;2.10;;
70126;SDS011;57491;42.694;23.314;2022-10-03T09:21:13;3.38;;;2.10;;
70126;SDS011;57491;42.694;23.314;2022-10-03T09:30:15;3.25;;;2.70;;
70126;SDS011;57491;42.694;23.314;2022-10-03T09:32:58;5.55;;;2.60;;
70126;SDS011;57491;42.694;23.314;2022-10-03T09:35:48;7.30;;;3.20;;
70126;SDS011;57491;42.694;23.314;2022-10-03T09:38:37;4.20;;;2.30;;
70126;SDS011;57491;42.694;23.314;2022-10-03T09:44:24;6.05;;;3.25;;
70126;SDS011;57491;42.694;23.314;2022-10-03T09:53:32;8.77;;;4.28;;
70126;SDS011;57491;42.694;23.314;2022-10-03T09:56:18;4.93;;;2.60;;
70126;SDS011;57491;42.694;23.314;2022-10-03T09:59:21;5.43;;;2.65;;
70126;SDS011;57491;42.694;23.314;2022-10-03T10:04:44;4.07;;;2.10;;
70126;SDS011;57491;42.694;23.314;2022-10-03T10:07:33;3.88;;;2.60;;
70126;SDS011;57491;42.694;23.314;2022-10-03T10:13:31;2.47;;;2.00;;
70126;SDS011;57491;42.694;23.314;2022-10-03T10:19:51;5.55;;;2.40;;
70126;SDS011;57491;42.694;23.314;2022-10-03T10:25:39;10.13;;;2.30;;
70126;SDS011;57491;42.694;23.314;2022-10-03T10:28:42;2.33;;;2.00;;
70126;SDS011;57491;42.694;23.314;2022-10-03T10:37:58;2.35;;;1.85;;
70126;SDS011;57491;42.694;23.314;2022-10-03T10:40:52;2.95;;;1.70;;
70126;SDS011;57491;42.694;23.314;2022-10-03T10:49:48;5.25;;;2.50;;
70126;SDS011;57491;42.694;23.314;2022-10-03T10:52:43;5.35;;;2.75;;
70126;SDS011;57491;42.694;23.314;2022-10-03T10:59:04;6.60;;;2.25;;
70126;SDS011;57491;42.694;23.314;2022-10-03T11:21:42;5.78;;;2.47;;
70126;SDS011;57491;42.694;23.314;2022-10-03T11:34:16;4.32;;;2.50;;
70126;SDS011;57491;42.694;23.314;2022-10-03T11:37:08;5.00;;;2.95;;
70126;SDS011;57491;42.694;23.314;2022-10-03T11:39:46;5.00;;;2.90;;
70126;SDS011;57491;42.694;23.314;2022-10-03T11:42:27;5.68;;;3.70;;
70126;SDS011;57491;42.694;23.314;2022-10-03T11:45:14;10.15;;;4.90;;
70126;SDS011;57491;42.694;23.314;2022-10-03T11:48:03;6.72;;;3.72;;
70126;SDS011;57491;42.694;23.314;2022-10-03T11:50:54;9.77;;;4.13;;
70126;SDS011;57491;42.694;23.314;2022-10-03T11:56:17;5.68;;;3.22;;
70126;SDS011;57491;42.694;23.314;2022-10-03T11:58:53;6.85;;;3.95;;
70126;SDS011;57491;42.694;23.314;2022-10-03T12:01:43;4.70;;;3.40;;
70126;SDS011;57491;42.694;23.314;2022-10-03T12:04:24;6.22;;;3.80;;
70126;SDS011;57491;42.694;23.314;2022-10-03T12:06:59;6.28;;;3.47;;
70126;SDS011;57491;42.694;23.314;2022-10-03T12:09:57;3.95;;;3.53;;
70126;SDS011;57491;42.694;23.314;2022-10-03T12:12:30;5.80;;;3.80;;
70126;SDS011;57491;42.694;23.314;2022-10-03T12:15:05;3.50;;;3.20;;
70126;SDS011;57491;42.694;23.314;2022-10-03T12:17:47;4.25;;;3.75;;
70126;SDS011;57491;42.694;23.314;2022-10-03T12:20:22;5.03;;;3.45;;
70126;SDS011;57491;42.694;23.314;2022-10-03T12:22:58;2.88;;;2.58;;
70126;SDS011;57491;42.694;23.314;2022-10-03T12:25:33;4.57;;;2.90;;
70126;SDS011;57491;42.694;23.314;2022-10-03T12:28:08;2.92;;;2.72;;
70126;SDS011;57491;42.694;23.314;2022-10-03T12:30:44;3.47;;;2.67;;
70126;SDS011;57491;42.694;23.314;2022-10-03T12:33:27;3.30;;;3.10;;
70126;SDS011;57491;42.694;23.314;2022-10-03T12:36:08;3.10;;;2.65;;
70126;SDS011;57491;42.694;23.314;2022-10-03T12:38:48;2.92;;;2.72;;
70126;SDS011;57491;42.694;23.314;2022-10-03T12:41:24;3.65;;;3.28;;
70126;SDS011;57491;42.694;23.314;2022-10-03T12:44:19;3.13;;;2.92;;
70126;SDS011;57491;42.694;23.314;2022-10-03T12:46:57;3.22;;;2.80;;
70126;SDS011;57491;42.694;23.314;2022-10-03T12:49:38;11.07;;;3.20;;
70126;SDS011;57491;42.694;23.314;2022-10-03T12:52:17;3.58;;;3.28;;
70126;SDS011;57491;42.694;23.314;2022-10-03T12:54:54;3.85;;;3.42;;
70126;SDS011;57491;42.694;23.314;2022-10-03T12:57:43;5.10;;;3.78;;
70126;SDS011;57491;42.694;23.314;2022-10-03T13:00:19;6.10;;;3.92;;
70126;SDS011;57491;42.694;23.314;2022-10-03T13:02:55;3.90;;;3.60;;
70126;SDS011;57491;42.694;23.314;2022-10-03T13:05:46;3.40;;;3.10;;
70126;SDS011;57491;42.694;23.314;2022-10-03T13:08:31;4.97;;;3.22;;
70126;SDS011;57491;42.694;23.314;2022-10-03T13:11:27;4.97;;;3.00;;
70126;SDS011;57491;42.694;23.314;2022-10-03T13:14:15;4.75;;;2.85;;
70126;SDS011;57491;42.694;23.314;2022-10-03T13:16:55;4.75;;;4.00;;
70126;SDS011;57491;42.694;23.314;2022-10-03T13:19:31;3.90;;;3.60;;
70126;SDS011;57491;42.694;23.314;2022-10-03T13:22:10;3.47;;;3.17;;
70126;SDS011;57491;42.694;23.314;2022-10-03T13:24:51;5.78;;;3.75;;
70126;SDS011;57491;42.694;23.314;2022-10-03T13:27:32;3.80;;;3.33;;
70126;SDS011;57491;42.694;23.314;2022-10-03T13:30:05;2.53;;;2.30;;
70126;SDS011;57491;42.694;23.314;2022-10-03T13:32:42;3.58;;;2.90;;
70126;SDS011;57491;42.694;23.314;2022-10-03T13:35:16;3.70;;;3.40;;
70126;SDS011;57491;42.694;23.314;2022-10-03T13:41:32;4.80;;;3.67;;
70126;SDS011;57491;42.694;23.314;2022-10-03T13:44:32;3.80;;;3.50;;
70126;SDS011;57491;42.694;23.314;2022-10-03T13:47:04;4.13;;;3.72;;
70126;SDS011;57491;42.694;23.314;2022-10-03T13:49:51;6.95;;;3.80;;
70126;SDS011;57491;42.694;23.314;2022-10-03T13:52:22;3.47;;;3.20;;
70126;SDS011;57491;42.694;23.314;2022-10-03T13:55:00;3.92;;;3.55;;
70126;SDS011;57491;42.694;23.314;2022-10-03T13:57:44;5.82;;;3.90;;
70126;SDS011;57491;42.694;23.314;2022-10-03T14:00:20;4.30;;;3.90;;
70126;SDS011;57491;42.694;23.314;2022-10-03T14:05:56;3.80;;;3.42;;
70126;SDS011;57491;42.694;23.314;2022-10-03T14:09:07;3.80;;;3.50;;
70126;SDS011;57491;42.694;23.314;2022-10-03T14:11:53;4.88;;;3.28;;
70126;SDS011;57491;42.694;23.314;2022-10-03T14:14:39;3.08;;;2.78;;
70126;SDS011;57491;42.694;23.314;2022-10-03T14:17:34;4.80;;;3.00;;
70126;SDS011;57491;42.694;23.314;2022-10-03T14:20:16;4.82;;;3.10;;
70126;SDS011;57491;42.694;23.314;2022-10-03T14:25:36;2.90;;;2.70;;
70126;SDS011;57491;42.694;23.314;2022-10-03T14:28:13;4.15;;;3.00;;
70126;SDS011;57491;42.694;23.314;2022-10-03T14:30:47;3.10;;;2.10;;
70126;SDS011;57491;42.694;23.314;2022-10-03T14:33:26;2.72;;;2.53;;
70126;SDS011;57491;42.694;23.314;2022-10-03T14:36:05;2.67;;;2.47;;
70126;SDS011;57491;42.694;23.314;2022-10-03T14:38:47;3.20;;;2.33;;
70126;SDS011;57491;42.694;23.314;2022-10-03T14:41:35;3.58;;;3.28;;
70126;SDS011;57491;42.694;23.314;2022-10-03T14:44:11;6.10;;;3.13;;
70126;SDS011;57491;42.694;23.314;2022-10-03T14:46:43;4.22;;;2.80;;
70126;SDS011;57491;42.694;23.314;2022-10-03T14:49:18;4.47;;;2.90;;
70126;SDS011;57491;42.694;23.314;2022-10-03T14:51:50;3.53;;;3.05;;
70126;SDS011;57491;42.694;23.314;2022-10-03T14:54:22;4.18;;;3.33;;
70126;SDS011;57491;42.694;23.314;2022-10-03T14:56:52;4.60;;;3.53;;
70126;SDS011;57491;42.694;23.314;2022-10-03T14:59:21;6.43;;;3.38;;
70126;SDS011;57491;42.694;23.314;2022-10-03T15:01:53;3.47;;;3.17;;
70126;SDS011;57491;42.694;23.314;2022-10-03T15:04:25;5.57;;;4.00;;
70126;SDS011;57491;42.694;23.314;2022-10-03T15:06:55;5.22;;;3.63;;
70126;SDS011;57491;42.694;23.314;2022-10-03T15:09:27;4.38;;;3.35;;
70126;SDS011;57491;42.694;23.314;2022-10-03T15:12:00;3.50;;;3.20;;
70126;SDS011;57491;42.694;23.314;2022-10-03T15:14:32;8.35;;;3.90;;
70126;SDS011;57491;42.694;23.314;2022-10-03T15:17:03;4.63;;;3.75;;
70126;SDS011;57491;42.694;23.314;2022-10-03T15:19:36;5.93;;;3.85;;
70126;SDS011;57491;42.694;23.314;2022-10-03T15:22:14;5.93;;;3.97;;
70126;SDS011;57491;42.694;23.314;2022-10-03T15:24:49;3.97;;;3.35;;
70126;SDS011;57491;42.694;23.314;2022-10-03T15:27:19;3.67;;;3.25;;
70126;SDS011;57491;42.694;23.314;2022-10-03T15:29:49;7.80;;;3.83;;
70126;SDS011;57491;42.694;23.314;2022-10-03T15:32:20;4.25;;;3.85;;
70126;SDS011;57491;42.694;23.314;2022-10-03T15:34:55;4.75;;;3.50;;
70126;SDS011;57491;42.694;23.314;2022-10-03T15:37:25;6.05;;;3.95;;
70126;SDS011;57491;42.694;23.314;2022-10-03T15:39:59;4.72;;;3.85;;
70126;SDS011;57491;42.694;23.314;2022-10-03T15:42:30;5.65;;;3.35;;
70126;SDS011;57491;42.694;23.314;2022-10-03T15:45:11;7.68;;;4.95;;
70126;SDS011;57491;42.694;23.314;2022-10-03T15:47:45;3.90;;;3.58;;
70126;SDS011;57491;42.694;23.314;2022-10-03T15:50:18;6.13;;;4.25;;
70126;SDS011;57491;42.694;23.314;2022-10-03T15:52:49;5.55;;;4.38;;
70126;SDS011;57491;42.694;23.314;2022-10-03T15:55:18;7.53;;;4.47;;
70126;SDS011;57491;42.694;23.314;2022-10-03T15:57:52;7.93;;;3.42;;
70126;SDS011;57491;42.694;23.314;2022-10-03T16:00:25;4.22;;;3.13;;
70126;SDS011;57491;42.694;23.314;2022-10-03T16:02:58;7.20;;;3.65;;
70126;SDS011;57491;42.694;23.314;2022-10-03T16:05:35;6.28;;;4.70;;
70126;SDS011;57491;42.694;23.314;2022-10-03T16:08:14;6.03;;;4.00;;
70126;SDS011;57491;42.694;23.314;2022-10-03T16:10:47;5.50;;;4.32;;
70126;SDS011;57491;42.694;23.314;2022-10-03T16:13:26;8.30;;;4.78;;
70126;SDS011;57491;42.694;23.314;2022-10-03T16:16:03;6.05;;;3.97;;
70126;SDS011;57491;42.694;23.314;2022-10-03T16:18:39;6.45;;;4.32;;
70126;SDS011;57491;42.694;23.314;2022-10-03T16:21:13;5.45;;;4.45;;
70126;SDS011;57491;42.694;23.314;2022-10-03T16:23:46;7.30;;;4.47;;
70126;SDS011;57491;42.694;23.314;2022-10-03T16:26:19;6.15;;;4.03;;
70126;SDS011;57491;42.694;23.314;2022-10-03T16:28:55;6.40;;;4.40;;
70126;SDS011;57491;42.694;23.314;2022-10-03T16:31:32;5.90;;;4.43;;
70126;SDS011;57491;42.694;23.314;2022-10-03T16:34:05;5.68;;;4.22;;
70126;SDS011;57491;42.694;23.314;2022-10-03T16:36:41;8.60;;;4.40;;
70126;SDS011;57491;42.694;23.314;2022-10-03T16:39:14;6.18;;;4.32;;
70126;SDS011;57491;42.694;23.314;2022-10-03T16:41:45;9.32;;;4.88;;
70126;SDS011;57491;42.694;23.314;2022-10-03T16:44:17;5.25;;;4.07;;
70126;SDS011;57491;42.694;23.314;2022-10-03T16:46:48;5.93;;;3.88;;
70126;SDS011;57491;42.694;23.314;2022-10-03T16:49:22;7.05;;;5.20;;
70126;SDS011;57491;42.694;23.314;2022-10-03T16:52:19;6.38;;;4.68;;
70126;SDS011;57491;42.694;23.314;2022-10-03T16:54:55;9.63;;;4.78;;
70126;SDS011;57491;42.694;23.314;2022-10-03T16:57:27;7.20;;;4.22;;
70126;SDS011;57491;42.694;23.314;2022-10-03T16:59:58;10.55;;;5.20;;
70126;SDS011;57491;42.694;23.314;2022-10-03T17:02:31;6.65;;;3.47;;
70126;SDS011;57491;42.694;23.314;2022-10-03T17:05:00;5.82;;;3.50;;
70126;SDS011;57491;42.694;23.314;2022-10-03T17:07:35;4.72;;;3.60;;
70126;SDS011;57491;42.694;23.314;2022-10-03T17:10:10;6.00;;;4.03;;
70126;SDS011;57491;42.694;23.314;2022-10-03T17:12:50;5.75;;;4.35;;
70126;SDS011;57491;42.694;23.314;2022-10-03T17:15:19;7.85;;;4.25;;
70126;SDS011;57491;42.694;23.314;2022-10-03T17:17:49;8.10;;;5.20;;
70126;SDS011;57491;42.694;23.314;2022-10-03T17:20:27;7.20;;;4.80;;
70126;SDS011;57491;42.694;23.314;2022-10-03T17:23:08;6.80;;;4.60;;
70126;SDS011;57491;42.694;23.314;2022-10-03T17:25:41;8.82;;;4.63;;
70126;SDS011;57491;42.694;23.314;2022-10-03T17:28:14;6.22;;;4.70;;
70126;SDS011;57491;42.694;23.314;2022-10-03T17:30:53;6.43;;;3.88;;
70126;SDS011;57491;42.694;23.314;2022-10-03T17:33:26;9.30;;;4.57;;
70126;SDS011;57491;42.694;23.314;2022-10-03T17:36:02;3.83;;;3.35;;
70126;SDS011;57491;42.694;23.314;2022-10-03T17:39:00;4.43;;;3.53;;
70126;SDS011;57491;42.694;23.314;2022-10-03T17:41:32;6.15;;;4.10;;
70126;SDS011;57491;42.694;23.314;2022-10-03T17:44:12;7.30;;;4.70;;
70126;SDS011;57491;42.694;23.314;2022-10-03T17:46:49;5.30;;;4.03;;
70126;SDS011;57491;42.694;23.314;2022-10-03T17:49:26;6.50;;;4.22;;
70126;SDS011;57491;42.694;23.314;2022-10-03T17:52:04;5.20;;;3.80;;
70126;SDS011;57491;42.694;23.314;2022-10-03T17:54:40;4.88;;;3.88;;
70126;SDS011;57491;42.694;23.314;2022-10-03T17:57:14;7.15;;;4.80;;
70126;SDS011;57491;42.694;23.314;2022-10-03T17:59:46;11.40;;;5.65;;
70126;SDS011;57491;42.694;23.314;2022-10-03T18:02:19;15.75;;;9.13;;
70126;SDS011;57491;42.694;23.314;2022-10-03T18:04:52;8.55;;;5.90;;
70126;SDS011;57491;42.694;23.314;2022-10-03T18:07:26;9.10;;;4.93;;
70126;SDS011;57491;42.694;23.314;2022-10-03T18:09:56;7.35;;;4.20;;
70126;SDS011;57491;42.694;23.314;2022-10-03T18:12:26;7.47;;;3.58;;
70126;SDS011;57491;42.694;23.314;2022-10-03T18:21:12;4.78;;;4.15;;
70126;SDS011;57491;42.694;23.314;2022-10-03T18:23:48;7.35;;;5.13;;
70126;SDS011;57491;42.694;23.314;2022-10-03T18:26:25;6.90;;;3.95;;
70126;SDS011;57491;42.694;23.314;2022-10-03T18:28:59;6.00;;;4.00;;
70126;SDS011;57491;42.694;23.314;2022-10-03T18:31:37;7.05;;;4.25;;
70126;SDS011;57491;42.694;23.314;2022-10-03T18:34:12;5.43;;;4.63;;
70126;SDS011;57491;42.694;23.314;2022-10-03T18:36:46;6.00;;;4.20;;
70126;SDS011;57491;42.694;23.314;2022-10-03T18:39:15;8.43;;;3.58;;
70126;SDS011;57491;42.694;23.314;2022-10-03T18:41:46;6.38;;;2.97;;
70126;SDS011;57491;42.694;23.314;2022-10-03T18:44:16;6.13;;;3.38;;
70126;SDS011;57491;42.694;23.314;2022-10-03T18:46:45;6.13;;;2.95;;
70126;SDS011;57491;42.694;23.314;2022-10-03T18:49:17;5.93;;;2.50;;
70126;SDS011;57491;42.694;23.314;2022-10-03T18:51:50;4.25;;;3.78;;